Time;durP1;ratioP1;P1;durP2;ratioP2;P2;SDS_P1;SDS_P2;PMS_P1;PMS_P2;Temp;Humidity;BMP_temperature;BMP_pressure;BME280_temperature;BME280_humidity;BME280_pressure;Samples;Min_cycle;Max_cycle;Signal;HPM_P1;HPM_P2
2023/09/29 00:01:21;;;;;;;11.30;9.23;;;;;;;20.21;58.33;100919.59;5084991;28;20259;-71
2023/09/29 00:03:49;;;;;;;14.50;9.73;;;;;;;20.21;58.21;100921.34;5084263;28;20208;-71
2023/09/29 00:06:17;;;;;;;15.30;9.23;;;;;;;20.17;58.20;100920.59;5092876;28;20326;-70
2023/09/29 00:08:45;;;;;;;14.10;9.50;;;;;;;20.16;58.43;100920.66;5091880;28;20200;-70
2023/09/29 00:11:14;;;;;;;11.77;9.10;;;;;;;20.12;58.61;100906.84;5089304;28;20223;-71
2023/09/29 00:13:43;;;;;;;12.18;8.75;;;;;;;20.13;58.57;100913.78;5083145;28;20577;-72
2023/09/29 00:16:11;;;;;;;12.73;10.23;;;;;;;20.13;58.38;100919.00;5082568;28;20642;-72
2023/09/29 00:18:39;;;;;;;12.18;9.18;;;;;;;20.09;58.28;100914.81;5093307;28;20208;-72
2023/09/29 00:21:07;;;;;;;13.68;9.73;;;;;;;20.05;58.55;100907.97;5092893;28;20583;-72
2023/09/29 00:23:36;;;;;;;11.18;9.20;;;;;;;20.02;58.73;100914.16;5093259;28;20208;-73
2023/09/29 00:26:05;;;;;;;17.73;9.45;;;;;;;20.01;58.92;100909.84;5092380;28;20374;-70
2023/09/29 00:28:33;;;;;;;14.52;9.40;;;;;;;20.00;58.69;100916.00;5093217;28;20208;-71
2023/09/29 00:31:05;;;;;;;13.10;9.40;;;;;;;20.01;58.52;100914.25;5089512;28;20220;-72
2023/09/29 00:33:33;;;;;;;13.55;9.40;;;;;;;19.96;58.83;100916.19;5089374;28;20288;-71
2023/09/29 00:36:01;;;;;;;12.15;9.93;;;;;;;19.91;59.05;100915.47;5092264;28;20202;-72
2023/09/29 00:38:29;;;;;;;13.20;9.77;;;;;;;19.90;59.19;100916.41;5089245;28;20265;-71
2023/09/29 00:40:58;;;;;;;13.95;9.63;;;;;;;19.89;59.18;100914.69;5092361;28;20200;-72
2023/09/29 00:43:27;;;;;;;13.95;9.38;;;;;;;19.87;59.49;100911.28;5091432;28;20208;-73
2023/09/29 00:45:55;;;;;;;17.48;9.75;;;;;;;19.84;59.54;100911.38;5090798;28;20220;-71
2023/09/29 00:48:25;;;;;;;14.85;10.02;;;;;;;19.81;59.48;100912.38;5090341;28;20291;-72
2023/09/29 00:50:53;;;;;;;15.52;10.10;;;;;;;19.78;59.56;100902.84;5090068;28;20209;-72
2023/09/29 00:53:22;;;;;;;12.90;10.70;;;;;;;19.75;59.71;100908.19;5091907;28;20196;-72
2023/09/29 00:55:51;;;;;;;11.43;8.85;;;;;;;19.72;59.83;100902.22;5091321;28;20579;-71
2023/09/29 00:58:21;;;;;;;11.85;9.75;;;;;;;19.70;59.73;100910.13;5091187;28;20201;-72
2023/09/29 01:00:49;;;;;;;16.08;9.73;;;;;;;19.73;59.88;100915.22;5090401;28;20214;-71
2023/09/29 01:03:19;;;;;;;15.65;10.25;;;;;;;19.73;60.15;100915.22;5089737;28;20240;-70
2023/09/29 01:05:51;;;;;;;14.48;10.02;;;;;;;19.72;59.95;100913.53;5089967;28;20695;-71
2023/09/29 01:08:22;;;;;;;12.73;10.73;;;;;;;19.72;60.07;100918.75;5089609;28;20667;-71
2023/09/29 01:10:52;;;;;;;16.90;10.75;;;;;;;19.71;59.90;100906.59;5081591;28;20205;-71
2023/09/29 01:13:21;;;;;;;28.02;20.50;;;;;;;19.70;59.99;100912.75;5091153;28;20735;-71
2023/09/29 01:15:49;;;;;;;33.28;24.15;;;;;;;19.65;59.75;100906.81;5088535;28;20203;-71
2023/09/29 01:18:18;;;;;;;15.30;11.75;;;;;;;19.67;59.74;100909.38;5090860;28;20236;-72
2023/09/29 01:20:49;;;;;;;15.23;11.15;;;;;;;19.65;60.14;100917.25;5089078;28;20557;-71
2023/09/29 01:23:17;;;;;;;16.42;11.43;;;;;;;19.64;60.14;100915.56;5089889;28;20571;-71
2023/09/29 01:25:46;;;;;;;17.63;10.93;;;;;;;19.61;60.41;100910.41;5086149;28;20221;-72
2023/09/29 01:28:14;;;;;;;18.02;11.65;;;;;;;19.58;60.14;100909.66;5090231;28;20556;-71
2023/09/29 01:30:43;;;;;;;22.27;10.90;;;;;;;19.52;60.63;100905.50;5089890;28;20208;-71
2023/09/29 01:33:12;;;;;;;14.55;10.80;;;;;;;19.50;60.76;100908.16;5090628;28;20615;-70
2023/09/29 01:35:43;;;;;;;13.65;10.48;;;;;;;19.50;61.02;100905.53;5090340;28;20587;-71
2023/09/29 01:38:12;;;;;;;15.55;11.18;;;;;;;19.48;60.68;100901.31;5090455;28;20204;-71
2023/09/29 01:40:41;;;;;;;17.65;11.57;;;;;;;19.43;61.03;100890.97;5089315;28;20232;-72
2023/09/29 01:43:10;;;;;;;14.75;12.13;;;;;;;19.45;60.80;100896.19;5094846;28;20204;-73
2023/09/29 01:45:39;;;;;;;18.08;12.10;;;;;;;19.42;61.06;100891.91;5096204;28;20219;-71
2023/09/29 01:48:08;;;;;;;14.77;11.20;;;;;;;19.41;61.45;100898.03;5090856;28;20218;-72
2023/09/29 01:50:36;;;;;;;14.40;12.00;;;;;;;19.40;61.36;100890.22;5098201;28;20590;-72
2023/09/29 01:53:06;;;;;;;15.80;12.05;;;;;;;19.36;61.48;100892.09;5099057;28;20204;-72
2023/09/29 01:55:34;;;;;;;15.20;12.23;;;;;;;19.34;61.58;100895.69;5096009;28;20223;-71
2023/09/29 01:58:03;;;;;;;15.82;12.38;;;;;;;19.33;61.81;100888.72;5097521;28;20201;-72
2023/09/29 02:00:33;;;;;;;18.40;12.65;;;;;;;19.29;61.82;100893.22;5093398;28;20215;-71
2023/09/29 02:03:05;;;;;;;13.40;12.00;;;;;;;19.25;61.73;100895.06;5086878;28;20578;-71
2023/09/29 02:05:33;;;;;;;16.15;12.60;;;;;;;19.20;61.96;100894.38;5096324;28;20220;-72
2023/09/29 02:08:05;;;;;;;17.77;12.23;;;;;;;19.17;61.99;100894.50;5095689;28;20278;-73
2023/09/29 02:10:33;;;;;;;15.98;12.95;;;;;;;19.14;62.32;100893.72;5088934;28;20542;-71
2023/09/29 02:13:04;;;;;;;19.63;12.82;;;;;;;19.11;62.51;100893.84;5096984;28;20208;-72
2023/09/29 02:15:35;;;;;;;19.00;12.27;;;;;;;19.10;62.65;100892.13;5096159;28;20208;-71
2023/09/29 02:18:04;;;;;;;14.82;12.15;;;;;;;19.07;62.58;100882.63;5095145;28;20300;-70
2023/09/29 02:20:34;;;;;;;16.35;12.68;;;;;;;19.05;62.69;100887.91;5092824;28;20630;-71
2023/09/29 02:23:05;;;;;;;19.52;12.70;;;;;;;19.05;62.74;100893.16;5099449;28;20212;-70
2023/09/29 02:25:33;;;;;;;19.00;12.50;;;;;;;19.06;62.59;100886.16;5096523;28;20609;-71
2023/09/29 02:28:01;;;;;;;14.57;12.35;;;;;;;19.04;62.66;100887.97;5097735;28;20643;-72
2023/09/29 02:30:30;;;;;;;14.57;13.05;;;;;;;19.02;62.50;100887.16;5096055;28;20196;-71
2023/09/29 02:32:59;;;;;;;14.38;12.27;;;;;;;19.02;62.69;100889.78;5092033;28;20723;-73
2023/09/29 02:35:28;;;;;;;16.73;12.55;;;;;;;19.00;62.82;100879.41;5096191;28;20325;-72
2023/09/29 02:37:56;;;;;;;18.83;12.85;;;;;;;19.01;62.70;100878.47;5092456;28;20215;-71
2023/09/29 02:40:24;;;;;;;18.20;12.55;;;;;;;19.00;62.51;100881.13;5090651;28;20547;-71
2023/09/29 02:42:53;;;;;;;18.15;12.35;;;;;;;18.95;63.09;100870.00;5096181;28;20544;-71
2023/09/29 02:45:24;;;;;;;16.25;12.55;;;;;;;18.94;62.86;100879.59;5098424;28;20270;-71
2023/09/29 02:47:53;;;;;;;14.73;12.57;;;;;;;18.92;62.94;100885.75;5099003;28;20683;-71
2023/09/29 02:50:24;;;;;;;16.60;12.43;;;;;;;18.90;63.01;100879.75;5097139;28;20670;-72
2023/09/29 02:52:53;;;;;;;15.18;12.95;;;;;;;18.91;63.05;100878.84;5097332;28;20616;-71
2023/09/29 02:55:22;;;;;;;16.70;12.57;;;;;;;18.91;62.84;100878.84;5087475;28;20714;-72
2023/09/29 02:57:51;;;;;;;18.73;12.77;;;;;;;18.90;62.98;100874.53;5089981;28;20287;-70
2023/09/29 03:00:21;;;;;;;18.33;12.68;;;;;;;18.89;62.93;100876.28;5088832;28;20197;-72
2023/09/29 03:02:52;;;;;;;19.20;11.88;;;;;;;18.88;63.06;100881.53;5094078;28;20200;-72
2023/09/29 03:05:21;;;;;;;16.10;12.98;;;;;;;18.88;62.81;100891.97;5087360;28;20201;-73
2023/09/29 03:07:51;;;;;;;17.25;12.73;;;;;;;18.85;62.86;100884.25;5091567;28;20224;-71
2023/09/29 03:10:25;;;;;;;18.02;11.90;;;;;;;18.85;62.97;100881.63;5092201;28;20577;-69
2023/09/29 03:12:56;;;;;;;15.80;12.13;;;;;;;18.86;62.87;100885.97;5089672;28;20538;-71
2023/09/29 03:15:26;;;;;;;15.20;11.88;;;;;;;18.85;62.91;100885.09;5093336;28;20572;-72
2023/09/29 03:17:55;;;;;;;14.93;11.95;;;;;;;18.83;63.25;100886.91;5093286;28;20270;-72
2023/09/29 03:20:27;;;;;;;16.35;11.57;;;;;;;18.78;62.88;100881.84;5096054;28;20243;-70
2023/09/29 03:23:00;;;;;;;15.68;12.60;;;;;;;18.74;63.15;100888.06;5093176;28;20205;-69
2023/09/29 03:25:32;;;;;;;16.92;11.88;;;;;;;18.73;62.92;100888.94;5095698;28;20577;-72
2023/09/29 03:28:00;;;;;;;18.42;12.32;;;;;;;18.72;63.02;100887.25;5089849;28;20262;-72
2023/09/29 03:30:29;;;;;;;16.42;12.45;;;;;;;18.66;63.19;100892.63;5088080;28;20306;-70
2023/09/29 03:32:57;;;;;;;18.67;12.18;;;;;;;18.59;63.89;100880.66;5090189;28;20209;-71
2023/09/29 03:35:25;;;;;;;16.05;11.68;;;;;;;18.54;63.52;100879.97;5093723;28;20545;-72
2023/09/29 03:37:54;;;;;;;15.25;12.38;;;;;;;18.53;63.72;100878.28;5092112;28;20200;-72
2023/09/29 03:40:26;;;;;;;15.45;11.43;;;;;;;18.52;63.83;100879.16;5093252;28;20673;-72
2023/09/29 03:42:55;;;;;;;20.15;12.00;;;;;;;18.52;63.84;100885.25;5091484;28;20204;-71
2023/09/29 03:45:23;;;;;;;18.17;11.93;;;;;;;18.50;63.93;100875.75;5089263;28;20200;-72
2023/09/29 03:47:52;;;;;;;16.17;12.10;;;;;;;18.48;63.88;100877.53;5093015;28;20208;-71
2023/09/29 03:50:20;;;;;;;14.80;11.52;;;;;;;18.48;63.71;100882.75;5091251;28;20291;-73
2023/09/29 03:52:48;;;;;;;18.35;11.73;;;;;;;18.46;63.76;100874.13;5092486;28;20197;-73
2023/09/29 03:55:17;;;;;;;18.05;11.65;;;;;;;18.44;63.85;100875.94;5093827;28;20212;-72
2023/09/29 03:57:48;;;;;;;17.67;11.82;;;;;;;18.40;63.90;100863.88;5092480;28;20739;-72
2023/09/29 04:00:18;;;;;;;18.20;11.75;;;;;;;18.39;63.85;100877.84;5089086;28;20671;-72
2023/09/29 04:02:49;;;;;;;15.68;12.63;;;;;;;18.34;63.67;100871.00;5089906;28;20634;-73
2023/09/29 04:05:18;;;;;;;19.30;11.20;;;;;;;18.32;63.74;100871.94;5091496;28;20200;-71
2023/09/29 04:07:47;;;;;;;16.33;11.35;;;;;;;18.28;63.89;100873.78;5089617;28;20220;-72
2023/09/29 04:10:15;;;;;;;15.82;11.52;;;;;;;18.21;64.06;100872.25;5089172;28;20216;-72
2023/09/29 04:12:46;;;;;;;13.70;10.77;;;;;;;18.21;64.09;100872.25;5089541;28;20570;-72
2023/09/29 04:15:15;;;;;;;18.23;11.35;;;;;;;18.21;64.21;100869.66;5087928;28;20201;-73
2023/09/29 04:17:44;;;;;;;16.35;11.93;;;;;;;18.21;63.90;100871.41;5085204;28;20227;-72
2023/09/29 04:20:13;;;;;;;16.92;10.27;;;;;;;18.20;63.93;100861.88;5091700;28;20535;-72
2023/09/29 04:22:41;;;;;;;18.38;10.90;;;;;;;18.19;64.04;100868.88;5091877;28;20216;-72
2023/09/29 04:25:10;;;;;;;17.27;10.50;;;;;;;18.21;63.70;100863.59;5092265;28;20565;-73
2023/09/29 04:27:39;;;;;;;16.10;11.10;;;;;;;18.21;63.58;100863.59;5089521;28;20255;-73
2023/09/29 04:30:12;;;;;;;16.05;10.80;;;;;;;18.22;63.47;100860.91;5089284;28;20257;-73
2023/09/29 04:32:41;;;;;;;18.73;10.85;;;;;;;18.21;63.40;100861.84;5088762;28;20269;-72
2023/09/29 04:35:10;;;;;;;15.75;10.50;;;;;;;18.19;63.35;100858.44;5087347;28;20204;-72
2023/09/29 04:37:38;;;;;;;14.05;10.15;;;;;;;18.18;63.65;100855.84;5089429;28;20262;-73
2023/09/29 04:40:09;;;;;;;14.52;10.35;;;;;;;18.20;63.42;100860.13;5090673;28;20232;-72
2023/09/29 04:42:37;;;;;;;15.27;10.70;;;;;;;18.15;63.15;100846.34;5088857;28;20200;-72
2023/09/29 04:45:09;;;;;;;16.98;10.48;;;;;;;18.18;63.34;100856.69;5090644;28;20208;-73
2023/09/29 04:47:38;;;;;;;15.15;11.15;;;;;;;18.20;63.14;100859.28;5088919;28;20242;-75
2023/09/29 04:50:11;;;;;;;15.73;10.48;;;;;;;18.19;62.81;100863.66;5079967;28;20212;-72
2023/09/29 04:52:39;;;;;;;21.30;10.65;;;;;;;18.21;62.93;100864.44;5090644;28;20346;-72
2023/09/29 04:55:08;;;;;;;15.48;10.27;;;;;;;18.21;62.99;100864.44;5088659;28;20323;-73
2023/09/29 04:57:36;;;;;;;16.60;11.27;;;;;;;18.20;62.81;100862.75;5091424;28;20205;-73
2023/09/29 05:00:06;;;;;;;14.73;10.63;;;;;;;18.16;62.96;100866.34;5088360;28;20201;-75
2023/09/29 05:02:35;;;;;;;16.05;11.43;;;;;;;18.14;62.90;100856.84;5090513;28;20267;-74
2023/09/29 05:05:04;;;;;;;13.57;11.27;;;;;;;18.17;63.00;100868.03;5090056;28;20253;-72
2023/09/29 05:07:32;;;;;;;16.25;10.98;;;;;;;18.15;62.80;100864.63;5085894;28;20717;-72
2023/09/29 05:10:00;;;;;;;14.02;10.43;;;;;;;18.15;62.95;100861.16;5082667;28;21006;-74
2023/09/29 05:12:30;;;;;;;16.30;11.25;;;;;;;18.14;62.88;100862.06;5090063;28;20213;-73
2023/09/29 05:14:58;;;;;;;13.80;10.30;;;;;;;18.12;63.08;100853.44;5091804;28;20220;-74
2023/09/29 05:17:26;;;;;;;15.63;11.18;;;;;;;18.13;63.15;100860.38;5092034;28;20225;-74
2023/09/29 05:20:16;;;;;;;18.05;11.02;;;;;;;18.12;62.87;100862.13;5094922;28;20302;-75
2023/09/29 05:22:44;;;;;;;15.80;10.90;;;;;;;18.14;62.94;100857.69;5097353;28;20524;-73
2023/09/29 05:25:12;;;;;;;17.05;10.93;;;;;;;18.19;62.84;100861.03;5094037;28;20593;-74
2023/09/29 05:27:41;;;;;;;17.58;11.25;;;;;;;18.23;62.71;100862.66;5095749;28;20224;-74
2023/09/29 05:30:12;;;;;;;16.40;11.05;;;;;;;18.25;62.73;100868.66;5094972;28;20671;-73
2023/09/29 05:32:40;;;;;;;14.38;10.65;;;;;;;18.27;62.35;100869.47;5095247;28;20200;-74
2023/09/29 05:35:09;;;;;;;13.75;10.13;;;;;;;18.28;62.20;100865.97;5082543;28;20204;-73
2023/09/29 05:37:39;;;;;;;21.38;11.40;;;;;;;18.30;62.20;100864.19;5097030;28;20200;-72
2023/09/29 05:40:08;;;;;;;16.70;10.65;;;;;;;18.31;62.39;100871.09;5076892;28;20688;-73
2023/09/29 05:42:39;;;;;;;13.65;9.18;;;;;;;18.34;62.34;100873.63;5073745;28;20213;-74
2023/09/29 05:45:20;;;;;;;14.98;9.95;;;;;;;18.35;62.14;100874.47;5059348;28;20648;-72
2023/09/29 05:47:51;;;;;;;13.75;10.48;;;;;;;18.38;61.85;100863.09;5059696;28;20216;-72
2023/09/29 05:50:20;;;;;;;14.93;9.93;;;;;;;18.38;61.83;100870.91;5070629;28;20600;-71
2023/09/29 05:52:50;;;;;;;15.90;11.10;;;;;;;18.37;61.96;100875.25;5070377;28;20217;-72
2023/09/29 05:55:36;;;;;;;12.25;9.55;;;;;;;18.37;61.94;100879.63;5075069;28;20534;-73
2023/09/29 05:58:05;;;;;;;14.40;9.90;;;;;;;18.38;61.88;100881.34;5065412;28;20200;-72
2023/09/29 06:00:33;;;;;;;14.10;9.95;;;;;;;18.35;61.89;100872.72;5069951;28;20216;-70
2023/09/29 06:03:01;;;;;;;15.60;10.23;;;;;;;18.34;61.82;100881.44;5069853;28;20213;-71
2023/09/29 06:05:30;;;;;;;15.63;10.50;;;;;;;18.33;62.20;100873.66;5074636;28;20213;-72
2023/09/29 06:08:00;;;;;;;13.60;9.90;;;;;;;18.33;62.05;100873.66;5071010;28;20684;-72
2023/09/29 06:10:28;;;;;;;17.52;10.35;;;;;;;18.35;62.15;100874.47;5060956;28;20241;-70
2023/09/29 06:12:56;;;;;;;16.23;10.27;;;;;;;18.37;62.02;100882.22;5077699;28;20228;-71
2023/09/29 06:15:24;;;;;;;17.20;10.32;;;;;;;18.43;61.88;100872.47;5070046;28;20714;-71
2023/09/29 06:17:52;;;;;;;14.82;10.20;;;;;;;18.46;61.79;100879.38;5064985;28;20228;-74
2023/09/29 06:20:20;;;;;;;16.20;10.73;;;;;;;18.49;61.79;100866.22;5065005;28;20225;-73
2023/09/29 06:22:48;;;;;;;13.18;10.77;;;;;;;18.58;61.61;100878.97;5082016;28;20572;-73
2023/09/29 06:25:18;;;;;;;12.77;10.57;;;;;;;18.64;61.74;100873.56;5070856;28;20250;-73
2023/09/29 06:27:47;;;;;;;17.35;10.63;;;;;;;18.71;61.30;100876.88;5081160;28;20233;-71
2023/09/29 06:30:15;;;;;;;15.18;10.68;;;;;;;18.75;61.40;100870.66;5084337;28;20209;-72
2023/09/29 06:32:43;;;;;;;17.63;10.57;;;;;;;18.82;60.96;100880.00;5075507;28;20220;-72
2023/09/29 06:35:12;;;;;;;19.38;10.07;;;;;;;18.91;61.19;100884.06;5074791;28;20205;-72
2023/09/29 06:37:40;;;;;;;13.10;10.23;;;;;;;19.02;60.75;100881.94;5070926;28;20201;-72
2023/09/29 06:40:10;;;;;;;14.68;10.55;;;;;;;19.23;60.52;100883.84;5078207;28;20233;-73
2023/09/29 06:42:40;;;;;;;15.50;11.05;;;;;;;19.45;59.59;100886.56;5075275;28;20201;-73
2023/09/29 06:45:09;;;;;;;13.02;9.93;;;;;;;19.67;59.06;100883.25;5077419;28;20283;-73
2023/09/29 06:47:37;;;;;;;18.60;11.05;;;;;;;19.90;58.63;100885.00;5076852;28;20209;-74
2023/09/29 06:50:09;;;;;;;12.85;10.85;;;;;;;20.08;57.86;100880.88;5074467;28;20209;-74
2023/09/29 06:52:37;;;;;;;15.43;10.88;;;;;;;20.31;57.29;100886.06;5072810;28;20189;-75
2023/09/29 06:55:07;;;;;;;12.73;9.77;;;;;;;20.51;56.69;100887.97;5082100;28;20202;-75
2023/09/29 06:57:35;;;;;;;21.95;11.60;;;;;;;20.70;56.05;100888.94;5073570;28;20204;-73
2023/09/29 07:00:06;;;;;;;14.15;10.50;;;;;;;20.87;55.44;100884.75;5071574;28;20408;-74
2023/09/29 07:02:34;;;;;;;19.80;10.88;;;;;;;21.04;54.99;100882.31;5073402;28;20220;-75
2023/09/29 07:05:03;;;;;;;19.45;9.70;;;;;;;21.26;54.34;100887.50;5075147;28;20194;-72
2023/09/29 07:07:32;;;;;;;15.65;10.52;;;;;;;21.54;53.80;100876.72;5068532;28;20201;-72
2023/09/29 07:10:00;;;;;;;19.45;10.05;;;;;;;22.01;53.68;100884.22;5079341;28;20205;-74
2023/09/29 07:12:28;;;;;;;16.17;10.52;;;;;;;22.62;52.14;100891.88;5071395;28;20252;-73
2023/09/29 07:14:56;;;;;;;17.58;10.82;;;;;;;23.33;50.15;100881.34;5081469;28;20618;-75
2023/09/29 07:17:26;;;;;;;16.20;10.25;;;;;;;23.98;47.23;100876.22;5070356;28;20209;-68
2023/09/29 07:19:54;;;;;;;13.07;9.85;;;;;;;24.45;44.99;100878.06;5071569;28;20201;-72
2023/09/29 07:22:25;;;;;;;15.73;10.10;;;;;;;24.64;43.74;100875.22;5072055;28;20660;-73
2023/09/29 07:24:57;;;;;;;15.57;10.27;;;;;;;24.72;43.33;100877.44;5075654;28;20203;-74
2023/09/29 07:27:27;;;;;;;18.63;12.18;;;;;;;24.75;43.47;100880.75;5072934;28;20204;-64
2023/09/29 07:29:56;;;;;;;17.67;10.02;;;;;;;24.70;44.14;100879.28;5071336;28;20737;-66
2023/09/29 07:32:26;;;;;;;19.73;9.45;;;;;;;24.54;44.28;100876.69;5080859;28;20205;-64
2023/09/29 07:34:54;;;;;;;21.73;10.25;;;;;;;24.41;45.18;100886.19;5073275;28;20281;-65
2023/09/29 07:37:22;;;;;;;25.08;10.68;;;;;;;24.27;45.31;100886.97;5068455;28;20311;-72
2023/09/29 07:39:50;;;;;;;19.88;10.18;;;;;;;24.13;45.28;100882.44;5072372;28;20245;-72
2023/09/29 07:42:18;;;;;;;21.40;9.38;;;;;;;24.01;45.68;100883.97;5062088;28;20239;-69
2023/09/29 07:44:46;;;;;;;15.15;9.68;;;;;;;23.83;46.23;100879.69;5072314;28;20652;-69
2023/09/29 07:47:14;;;;;;;22.15;10.05;;;;;;;23.73;46.26;100884.59;5066489;28;20213;-69
2023/09/29 07:49:43;;;;;;;16.80;9.70;;;;;;;23.70;46.60;100884.75;5064217;28;20224;-67
2023/09/29 07:52:11;;;;;;;15.48;9.35;;;;;;;23.71;46.64;100881.16;5072845;28;20656;-69
2023/09/29 07:54:39;;;;;;;14.57;8.63;;;;;;;23.72;46.64;100885.53;5079916;28;20200;-68
2023/09/29 07:57:08;;;;;;;14.93;9.05;;;;;;;23.74;46.54;100881.00;5074208;28;20208;-68
2023/09/29 07:59:36;;;;;;;21.40;9.73;;;;;;;23.79;46.36;100884.25;5068865;28;20248;-68
2023/09/29 08:02:06;;;;;;;13.75;10.00;;;;;;;23.83;46.55;100880.53;5069350;28;20259;-69
2023/09/29 08:04:34;;;;;;;15.15;9.02;;;;;;;23.83;46.41;100877.06;5083786;28;20231;-68
2023/09/29 08:07:03;;;;;;;11.75;8.85;;;;;;;23.90;46.69;100873.16;5063469;28;20196;-68
2023/09/29 08:09:32;;;;;;;13.30;8.73;;;;;;;23.92;46.13;100873.91;5063967;28;20567;-67
2023/09/29 08:12:00;;;;;;;18.80;9.23;;;;;;;24.01;46.60;100872.59;5068783;28;20202;-69
2023/09/29 08:14:28;;;;;;;17.73;8.88;;;;;;;24.12;46.52;100875.47;5063483;28;20703;-70
2023/09/29 08:16:56;;;;;;;16.20;9.10;;;;;;;24.21;46.07;100874.13;5064903;28;20205;-68
2023/09/29 08:19:25;;;;;;;16.73;8.73;;;;;;;24.23;45.66;100878.38;5063798;28;20201;-68
2023/09/29 08:21:53;;;;;;;11.00;8.38;;;;;;;24.32;45.41;100877.00;5072511;28;20205;-68
2023/09/29 08:24:22;;;;;;;15.32;8.70;;;;;;;24.42;45.13;100874.75;5078181;28;20227;-68
2023/09/29 08:26:51;;;;;;;11.27;8.00;;;;;;;24.44;44.81;100871.06;5073810;28;20203;-70
2023/09/29 08:29:19;;;;;;;12.32;8.13;;;;;;;24.47;44.47;100880.59;5071189;28;20236;-68
2023/09/29 08:31:47;;;;;;;12.35;8.25;;;;;;;24.47;45.06;100881.44;5069924;28;20711;-70
2023/09/29 08:34:15;;;;;;;18.05;9.30;;;;;;;24.55;45.00;100876.59;5059953;28;20225;-68
2023/09/29 08:36:43;;;;;;;12.27;8.52;;;;;;;24.67;44.63;100882.09;5070871;28;20631;-69
2023/09/29 08:39:11;;;;;;;12.13;8.02;;;;;;;24.71;44.33;100875.75;5078815;28;20240;-69
2023/09/29 08:41:47;;;;;;;13.80;7.90;;;;;;;24.72;44.06;100878.28;5103437;28;20234;-68
2023/09/29 08:44:19;;;;;;;12.60;7.63;;;;;;;24.71;44.28;100888.91;5092276;28;20221;-70
2023/09/29 08:46:49;;;;;;;13.68;7.35;;;;;;;24.70;44.06;100884.56;5091589;28;20204;-68
2023/09/29 08:49:18;;;;;;;10.30;7.25;;;;;;;24.80;44.29;100877.84;5089077;28;20220;-70
2023/09/29 08:51:47;;;;;;;11.15;7.60;;;;;;;24.92;43.57;100871.84;5091332;28;20224;-70
2023/09/29 08:54:15;;;;;;;11.30;6.80;;;;;;;25.00;43.42;100874.91;5085558;28;20204;-70
2023/09/29 08:56:46;;;;;;;11.52;6.90;;;;;;;25.08;43.39;100871.81;5091087;28;21061;-69
2023/09/29 08:59:16;;;;;;;13.25;7.25;;;;;;;25.15;42.89;100867.03;5086838;28;20192;-69
2023/09/29 09:01:46;;;;;;;11.82;6.80;;;;;;;25.22;42.76;100868.38;5093794;28;20192;-70
2023/09/29 09:04:14;;;;;;;13.85;7.55;;;;;;;25.30;42.74;100864.34;5094240;28;20292;-69
2023/09/29 09:06:42;;;;;;;14.15;6.85;;;;;;;25.38;42.47;100865.69;5088012;28;20682;-69
2023/09/29 09:09:10;;;;;;;10.10;7.05;;;;;;;25.43;42.99;100864.44;5092559;28;20213;-70
2023/09/29 09:11:42;;;;;;;11.55;6.30;;;;;;;25.48;42.22;100862.41;5093674;28;20203;-68
2023/09/29 09:14:15;;;;;;;11.35;6.93;;;;;;;25.46;41.57;100861.63;5094597;28;20204;-70
2023/09/29 09:16:45;;;;;;;9.05;7.00;;;;;;;25.37;41.70;100859.56;5094789;28;20209;-68
2023/09/29 09:19:15;;;;;;;13.40;6.72;;;;;;;25.25;42.10;100857.63;5097050;28;20197;-70
2023/09/29 09:21:46;;;;;;;11.82;6.78;;;;;;;25.15;42.45;100851.19;5077275;28;20242;-71
2023/09/29 09:24:19;;;;;;;11.93;6.63;;;;;;;25.04;41.92;100863.22;5080723;28;20617;-70
2023/09/29 09:26:48;;;;;;;8.90;6.35;;;;;;;24.88;42.78;100862.41;5090841;28;20339;-70
2023/09/29 09:29:19;;;;;;;9.82;6.18;;;;;;;24.77;43.47;100856.91;5092743;28;20216;-70
2023/09/29 09:31:50;;;;;;;9.65;6.28;;;;;;;24.68;43.08;100860.09;5090293;28;20206;-70
2023/09/29 09:34:19;;;;;;;12.93;6.20;;;;;;;24.59;43.54;100857.03;5095895;28;20876;-71
2023/09/29 09:36:50;;;;;;;11.75;6.65;;;;;;;24.55;43.62;100857.28;5088799;28;20561;-70
2023/09/29 09:39:22;;;;;;;10.52;6.47;;;;;;;24.61;43.71;100856.13;5085233;28;20303;-71
2023/09/29 09:41:53;;;;;;;16.73;7.70;;;;;;;24.72;44.01;100849.28;5087321;28;20292;-71
2023/09/29 09:44:22;;;;;;;11.65;6.95;;;;;;;24.92;43.38;100856.00;5088765;28;20647;-70
2023/09/29 09:47:00;;;;;;;11.93;6.82;;;;;;;25.13;43.48;100840.75;5089369;28;20215;-70
2023/09/29 09:49:36;;;;;;;12.20;6.38;;;;;;;25.42;42.78;100846.91;5083969;28;20273;-70
2023/09/29 09:52:07;;;;;;;15.68;6.07;;;;;;;25.64;42.30;100845.63;5086882;28;20291;-70
2023/09/29 09:54:49;;;;;;;10.25;6.60;;;;;;;25.84;41.49;100839.97;5095665;28;20284;-70
2023/09/29 09:57:24;;;;;;;9.90;6.18;;;;;;;26.01;41.18;100836.25;5098653;28;21174;-70
2023/09/29 09:59:56;;;;;;;15.95;6.25;;;;;;;26.18;41.30;100832.53;5086548;28;20196;-70
2023/09/29 10:02:25;;;;;;;13.82;6.22;;;;;;;26.28;40.40;100833.63;5091601;28;20211;-69
2023/09/29 10:04:54;;;;;;;11.15;5.55;;;;;;;26.37;39.01;100832.22;5092779;28;20215;-70
2023/09/29 10:07:22;;;;;;;11.68;5.80;;;;;;;26.45;39.31;100828.13;5100842;28;20662;-70
2023/09/29 10:09:50;;;;;;;11.65;5.20;;;;;;;26.55;38.55;100825.75;5089799;28;20211;-69
2023/09/29 10:12:26;;;;;;;13.38;5.13;;;;;;;26.61;37.54;100829.78;5093017;28;20212;-69
2023/09/29 10:14:57;;;;;;;11.50;5.40;;;;;;;26.61;38.04;100819.19;5093747;28;20963;-71
2023/09/29 10:17:26;;;;;;;8.93;5.88;;;;;;;26.69;38.38;100828.31;5089101;28;20280;-71
2023/09/29 10:19:54;;;;;;;8.20;5.35;;;;;;;26.77;38.79;100827.81;5092405;28;20280;-70
2023/09/29 10:22:24;;;;;;;8.60;6.10;;;;;;;26.80;38.79;100822.31;5094553;28;20192;-70
2023/09/29 10:24:56;;;;;;;12.50;6.03;;;;;;;26.82;38.35;100825.72;5094038;28;20200;-72
2023/09/29 10:27:33;;;;;;;8.93;4.88;;;;;;;26.69;38.05;100823.03;5087281;28;20196;-69
2023/09/29 10:30:16;;;;;;;9.65;5.40;;;;;;;26.60;37.96;100822.81;5094206;28;20807;-70
2023/09/29 10:32:46;;;;;;;8.82;5.53;;;;;;;26.52;38.25;100825.09;5091199;28;20211;-69
2023/09/29 10:35:19;;;;;;;11.63;5.43;;;;;;;26.48;38.36;100825.31;5097451;28;20200;-71
2023/09/29 10:37:54;;;;;;;13.38;4.95;;;;;;;26.54;38.74;100812.63;5107557;28;20658;-71
2023/09/29 10:40:25;;;;;;;8.25;5.03;;;;;;;26.59;38.37;100815.81;5096614;28;20338;-70
2023/09/29 10:42:56;;;;;;;9.18;5.25;;;;;;;26.66;38.00;100817.97;5098635;28;20209;-71
2023/09/29 10:45:29;;;;;;;10.88;5.88;;;;;;;26.81;37.98;100818.72;5109176;28;20208;-71
2023/09/29 10:48:02;;;;;;;8.55;5.22;;;;;;;26.98;37.44;100805.19;5089337;28;20296;-71
2023/09/29 10:50:30;;;;;;;14.43;5.15;;;;;;;27.16;37.34;100811.06;5087154;28;20222;-71
2023/09/29 10:52:58;;;;;;;10.93;5.55;;;;;;;27.29;36.85;100799.66;5104716;28;20280;-70
2023/09/29 10:55:27;;;;;;;9.23;5.63;;;;;;;27.36;36.50;100804.41;5082052;28;20197;-71
2023/09/29 10:57:59;;;;;;;8.88;5.57;;;;;;;27.40;36.25;100795.28;5097415;28;20201;-71
2023/09/29 11:00:28;;;;;;;8.45;4.93;;;;;;;27.49;36.04;100790.28;5104025;28;20211;-70
2023/09/29 11:02:56;;;;;;;13.15;4.97;;;;;;;27.58;35.70;100794.94;5096101;28;20205;-71
2023/09/29 11:05:24;;;;;;;7.63;5.32;;;;;;;27.70;35.70;100799.38;5091635;28;20238;-71
2023/09/29 11:07:53;;;;;;;12.00;5.32;;;;;;;27.71;35.01;100790.47;5101209;28;20200;-71
2023/09/29 11:10:21;;;;;;;11.85;4.60;;;;;;;27.69;34.86;100784.44;5087787;28;20697;-70
2023/09/29 11:12:50;;;;;;;8.80;4.40;;;;;;;27.68;34.21;100774.78;5093850;28;20204;-71
2023/09/29 11:15:19;;;;;;;7.20;4.63;;;;;;;27.69;33.99;100779.16;5094138;28;20227;-71
2023/09/29 11:17:50;;;;;;;8.85;4.90;;;;;;;27.74;34.31;100773.53;5094101;28;20600;-71
2023/09/29 11:20:26;;;;;;;5.25;4.40;;;;;;;27.79;33.99;100771.41;5099635;28;20284;-71
2023/09/29 11:23:07;;;;;;;8.07;4.82;;;;;;;27.84;33.79;100766.66;5090812;28;20224;-71
2023/09/29 11:25:46;;;;;;;11.57;4.70;;;;;;;27.89;33.63;100765.34;5093889;28;20595;-72